Time;durP1;ratioP1;P1;durP2;ratioP2;P2;SDS_P1;SDS_P2;PMS_P1;PMS_P2;Temp;Humidity;BMP_temperature;BMP_pressure;BME280_temperature;BME280_humidity;BME280_pressure;Samples;Min_cycle;Max_cycle;Signal;HPM_P1;HPM_P2
2022/09/26 00:00:17;;;;;;;0.00;0.00;;;;;;;;;;1738902;28;20195;-71
2022/09/26 00:01:08;;;;;;;0.00;0.00;;;;;;;;;;1740204;28;20313;-72
2022/09/26 00:02:00;;;;;;;0.00;0.00;;;;;;;;;;1739274;28;20871;-72
2022/09/26 00:02:51;;;;;;;0.00;0.00;;;;;;;;;;1740153;28;20248;-72
2022/09/26 00:03:45;;;;;;;0.00;0.00;;;;;;;;;;1738857;28;20244;-72
2022/09/26 00:04:36;;;;;;;0.00;0.00;;;;;;;;;;1739947;28;20255;-72
2022/09/26 00:05:28;;;;;;;0.00;0.00;;;;;;;;;;1738579;28;20200;-72
2022/09/26 00:06:20;;;;;;;0.00;0.00;;;;;;;;;;1739879;28;20616;-72
2022/09/26 00:07:12;;;;;;;0.00;0.00;;;;;;;;;;1739761;28;20604;-72
2022/09/26 00:08:04;;;;;;;0.00;0.00;;;;;;;;;;1740414;28;20203;-72
2022/09/26 00:08:55;;;;;;;0.00;0.00;;;;;;;;;;1739740;28;20264;-72
2022/09/26 00:09:47;;;;;;;0.00;0.00;;;;;;;;;;1740090;28;20256;-71
2022/09/26 00:10:38;;;;;;;0.00;0.00;;;;;;;;;;1739972;28;20203;-71
2022/09/26 00:11:32;;;;;;;0.00;0.00;;;;;;;;;;1740079;28;20195;-72
2022/09/26 00:12:23;;;;;;;0.00;0.00;;;;;;;;;;1739104;28;20199;-71
2022/09/26 00:13:15;;;;;;;0.00;0.00;;;;;;;;;;1740031;28;20207;-72
2022/09/26 00:14:07;;;;;;;0.00;0.00;;;;;;;;;;1739024;28;20534;-72
2022/09/26 00:14:59;;;;;;;0.00;0.00;;;;;;;;;;1739502;28;20215;-72
2022/09/26 00:15:50;;;;;;;0.00;0.00;;;;;;;;;;1740154;28;20629;-72
2022/09/26 00:16:42;;;;;;;0.00;0.00;;;;;;;;;;1739424;28;20206;-71
2022/09/26 00:17:33;;;;;;;0.00;0.00;;;;;;;;;;1739871;28;20279;-70
2022/09/26 00:18:26;;;;;;;0.00;0.00;;;;;;;;;;1739029;28;20199;-71
2022/09/26 00:19:18;;;;;;;0.00;0.00;;;;;;;;;;1739514;28;20214;-70
2022/09/26 00:20:10;;;;;;;0.00;0.00;;;;;;;;;;1739591;28;20263;-70
2022/09/26 00:21:02;;;;;;;0.00;0.00;;;;;;;;;;1736676;28;20203;-72
2022/09/26 00:21:54;;;;;;;0.00;0.00;;;;;;;;;;1739227;28;20201;-72
2022/09/26 00:22:45;;;;;;;0.00;0.00;;;;;;;;;;1739760;28;20713;-72
2022/09/26 00:23:37;;;;;;;0.00;0.00;;;;;;;;;;1739315;28;20573;-72
2022/09/26 00:24:29;;;;;;;0.00;0.00;;;;;;;;;;1739799;28;20317;-72
2022/09/26 00:25:21;;;;;;;0.00;0.00;;;;;;;;;;1739788;28;20593;-72
2022/09/26 00:26:13;;;;;;;0.00;0.00;;;;;;;;;;1740111;28;20271;-71
2022/09/26 00:27:05;;;;;;;0.00;0.00;;;;;;;;;;1739094;28;20280;-71
2022/09/26 00:27:56;;;;;;;0.00;0.00;;;;;;;;;;1740032;28;20302;-71
2022/09/26 00:28:48;;;;;;;0.00;0.00;;;;;;;;;;1739261;28;20639;-71
2022/09/26 00:29:39;;;;;;;0.00;0.00;;;;;;;;;;1739694;28;20548;-70
2022/09/26 00:30:31;;;;;;;0.00;0.00;;;;;;;;;;1739573;28;20261;-70
2022/09/26 00:31:23;;;;;;;0.00;0.00;;;;;;;;;;1739944;28;20267;-70
2022/09/26 00:32:15;;;;;;;0.00;0.00;;;;;;;;;;1739420;28;20293;-70
2022/09/26 00:33:06;;;;;;;0.00;0.00;;;;;;;;;;1740057;28;20219;-70
2022/09/26 00:33:59;;;;;;;0.00;0.00;;;;;;;;;;1738142;28;20203;-72
2022/09/26 00:34:51;;;;;;;0.00;0.00;;;;;;;;;;1739869;28;20202;-70
2022/09/26 00:35:49;;;;;;;0.00;0.00;;;;;;;;;;1738633;28;20514;-70
2022/09/26 00:36:41;;;;;;;0.00;0.00;;;;;;;;;;1739240;28;20653;-72
2022/09/26 00:37:32;;;;;;;0.00;0.00;;;;;;;;;;1739586;28;20195;-72
2022/09/26 00:38:24;;;;;;;0.00;0.00;;;;;;;;;;1739252;28;20207;-71
2022/09/26 00:39:16;;;;;;;0.00;0.00;;;;;;;;;;1738744;28;20203;-72
2022/09/26 00:40:07;;;;;;;0.00;0.00;;;;;;;;;;1740084;28;20211;-71
2022/09/26 00:41:00;;;;;;;0.00;0.00;;;;;;;;;;1739907;28;20211;-72
2022/09/26 00:41:51;;;;;;;0.00;0.00;;;;;;;;;;1739017;28;20275;-72
2022/09/26 00:42:43;;;;;;;0.00;0.00;;;;;;;;;;1739963;28;20288;-72
2022/09/26 00:43:35;;;;;;;0.00;0.00;;;;;;;;;;1739135;28;20300;-72
2022/09/26 00:44:48;;;;;;;0.00;0.00;;;;;;;;;;1739964;28;20198;-71
2022/09/26 00:45:39;;;;;;;0.00;0.00;;;;;;;;;;1735940;28;20215;-72
2022/09/26 00:46:33;;;;;;;0.00;0.00;;;;;;;;;;1740002;28;20207;-72
2022/09/26 00:47:28;;;;;;;0.00;0.00;;;;;;;;;;1738132;28;20203;-72
2022/09/26 00:48:20;;;;;;;0.00;0.00;;;;;;;;;;1739778;28;20447;-72
2022/09/26 00:49:14;;;;;;;0.00;0.00;;;;;;;;;;1738917;28;20288;-71
2022/09/26 00:50:12;;;;;;;0.00;0.00;;;;;;;;;;1739296;28;20203;-72
2022/09/26 00:51:03;;;;;;;0.00;0.00;;;;;;;;;;1739942;28;20214;-71
2022/09/26 00:51:57;;;;;;;0.00;0.00;;;;;;;;;;1738659;28;20206;-71
2022/09/26 00:52:50;;;;;;;0.00;0.00;;;;;;;;;;1739864;28;20260;-70
2022/09/26 00:53:43;;;;;;;0.00;0.00;;;;;;;;;;1738916;28;20222;-70
2022/09/26 00:54:34;;;;;;;0.00;0.00;;;;;;;;;;1739834;28;20251;-70
2022/09/26 00:55:27;;;;;;;0.00;0.00;;;;;;;;;;1738299;28;20199;-71
2022/09/26 00:56:21;;;;;;;0.00;0.00;;;;;;;;;;1739681;28;20207;-70
2022/09/26 00:57:15;;;;;;;0.00;0.00;;;;;;;;;;1738839;28;20214;-71
2022/09/26 00:58:08;;;;;;;0.00;0.00;;;;;;;;;;1739554;28;20211;-70
2022/09/26 00:59:03;;;;;;;0.00;0.00;;;;;;;;;;1738901;28;20213;-70
2022/09/26 00:59:56;;;;;;;0.00;0.00;;;;;;;;;;1739406;28;20584;-70
2022/09/26 01:00:50;;;;;;;0.00;0.00;;;;;;;;;;1739555;28;20203;-71
2022/09/26 01:01:41;;;;;;;0.00;0.00;;;;;;;;;;1739164;28;20276;-70
2022/09/26 01:02:32;;;;;;;0.00;0.00;;;;;;;;;;1739284;28;20301;-70
2022/09/26 01:03:24;;;;;;;0.00;0.00;;;;;;;;;;1739018;28;20615;-70
2022/09/26 01:04:16;;;;;;;0.00;0.00;;;;;;;;;;1739644;28;20203;-71
2022/09/26 01:05:11;;;;;;;0.00;0.00;;;;;;;;;;1739321;28;20202;-71
2022/09/26 01:06:02;;;;;;;0.00;0.00;;;;;;;;;;1736249;28;20203;-70
2022/09/26 01:06:54;;;;;;;0.00;0.00;;;;;;;;;;1738927;28;20206;-70
2022/09/26 01:07:46;;;;;;;0.00;0.00;;;;;;;;;;1740153;28;20214;-70
2022/09/26 01:08:40;;;;;;;0.10;0.10;;;;;;;;;;1738905;28;20199;-70
2022/09/26 01:09:32;;;;;;;0.00;0.00;;;;;;;;;;1739928;28;20203;-70
2022/09/26 01:10:25;;;;;;;0.00;0.00;;;;;;;;;;1738615;28;20195;-70
2022/09/26 01:11:17;;;;;;;0.00;0.00;;;;;;;;;;1739905;28;20213;-71
2022/09/26 01:12:09;;;;;;;0.00;0.00;;;;;;;;;;1738914;28;20203;-72
2022/09/26 01:13:01;;;;;;;0.00;0.00;;;;;;;;;;1740198;28;20211;-72
2022/09/26 01:13:54;;;;;;;0.00;0.00;;;;;;;;;;1739072;28;20561;-72
2022/09/26 01:14:46;;;;;;;0.00;0.00;;;;;;;;;;1739598;28;20214;-72
2022/09/26 01:15:38;;;;;;;0.00;0.00;;;;;;;;;;1739511;28;20611;-71
2022/09/26 01:16:30;;;;;;;0.00;0.00;;;;;;;;;;1739436;28;20340;-72
2022/09/26 01:17:23;;;;;;;0.00;0.00;;;;;;;;;;1738634;28;20329;-72
2022/09/26 01:18:14;;;;;;;0.00;0.00;;;;;;;;;;1739361;28;20297;-71
2022/09/26 01:19:13;;;;;;;0.00;0.00;;;;;;;;;;1738029;28;20199;-72
2022/09/26 01:20:13;;;;;;;0.00;0.00;;;;;;;;;;1739570;28;20215;-72
2022/09/26 01:21:11;;;;;;;0.00;0.00;;;;;;;;;;1732403;28;20212;-70
2022/09/26 01:22:15;;;;;;;0.00;0.00;;;;;;;;;;1735053;28;20612;-70
2022/09/26 01:23:24;;;;;;;0.00;0.00;;;;;;;;;;1739487;28;20251;-70
2022/09/26 01:24:38;;;;;;;0.00;0.00;;;;;;;;;;1739460;28;20678;-70
2022/09/26 01:25:36;;;;;;;0.00;0.00;;;;;;;;;;1739299;28;20195;-70
2022/09/26 01:26:39;;;;;;;0.00;0.00;;;;;;;;;;1739655;28;20233;-70
2022/09/26 01:27:58;;;;;;;0.00;0.00;;;;;;;;;;1738977;28;20257;-70
2022/09/26 01:28:59;;;;;;;0.00;0.00;;;;;;;;;;1724547;28;20643;-70
2022/09/26 01:30:04;;;;;;;0.00;0.00;;;;;;;;;;1733312;28;20261;-70
2022/09/26 01:31:00;;;;;;;0.00;0.00;;;;;;;;;;1739177;28;20206;-70
2022/09/26 01:33:30;;;;;;;0.00;0.00;;;;;;;;;;1739534;28;20537;-70
2022/09/26 01:34:24;;;;;;;0.00;0.00;;;;;;;;;;1736165;28;20255;-70
2022/09/26 01:35:21;;;;;;;0.00;0.00;;;;;;;;;;1739901;28;20261;-70
2022/09/26 01:36:30;;;;;;;0.00;0.00;;;;;;;;;;1740174;28;20882;-70
2022/09/26 01:37:29;;;;;;;0.00;0.00;;;;;;;;;;1737854;28;20286;-71
2022/09/26 01:38:23;;;;;;;0.00;0.00;;;;;;;;;;1739883;28;20270;-71
2022/09/26 01:39:24;;;;;;;0.00;0.00;;;;;;;;;;1738415;28;20227;-71
2022/09/26 01:40:19;;;;;;;0.00;0.00;;;;;;;;;;1739523;28;20188;-70
2022/09/26 01:41:18;;;;;;;0.00;0.00;;;;;;;;;;1739427;28;20203;-71
2022/09/26 01:42:14;;;;;;;0.00;0.00;;;;;;;;;;1737632;28;20215;-71
2022/09/26 01:43:08;;;;;;;0.00;0.00;;;;;;;;;;1739941;28;20244;-70
2022/09/26 01:44:07;;;;;;;0.00;0.00;;;;;;;;;;1738473;28;20312;-70
2022/09/26 01:45:00;;;;;;;0.00;0.00;;;;;;;;;;1739966;28;20184;-70
2022/09/26 01:45:55;;;;;;;0.00;0.00;;;;;;;;;;1738976;28;20199;-70
2022/09/26 01:46:47;;;;;;;0.00;0.00;;;;;;;;;;1738974;28;20280;-70
2022/09/26 01:47:41;;;;;;;0.00;0.00;;;;;;;;;;1739070;28;20234;-70
2022/09/26 01:48:35;;;;;;;0.00;0.00;;;;;;;;;;1738539;28;20260;-70
2022/09/26 01:49:28;;;;;;;0.00;0.00;;;;;;;;;;1739375;28;20294;-70
2022/09/26 01:50:23;;;;;;;0.00;0.00;;;;;;;;;;1739206;28;20214;-70
2022/09/26 01:51:18;;;;;;;0.00;0.00;;;;;;;;;;1739096;28;20583;-70
2022/09/26 01:52:13;;;;;;;0.00;0.00;;;;;;;;;;1737641;28;20222;-70
2022/09/26 01:53:07;;;;;;;0.03;0.03;;;;;;;;;;1739453;28;20191;-70
2022/09/26 01:54:01;;;;;;;0.00;0.00;;;;;;;;;;1738220;28;20679;-70
2022/09/26 01:54:54;;;;;;;0.00;0.00;;;;;;;;;;1739664;28;20213;-70
2022/09/26 01:55:48;;;;;;;0.00;0.00;;;;;;;;;;1739470;28;20206;-70
2022/09/26 01:56:40;;;;;;;0.00;0.00;;;;;;;;;;1738895;28;20199;-70
2022/09/26 01:57:36;;;;;;;0.00;0.00;;;;;;;;;;1739297;28;20436;-71
2022/09/26 01:58:31;;;;;;;0.00;0.00;;;;;;;;;;1737792;28;20195;-70
2022/09/26 01:59:24;;;;;;;0.00;0.00;;;;;;;;;;1735692;28;20279;-70
2022/09/26 02:00:17;;;;;;;0.00;0.00;;;;;;;;;;1737742;28;20234;-70
2022/09/26 02:01:11;;;;;;;0.00;0.00;;;;;;;;;;1739266;28;20213;-72
2022/09/26 02:02:04;;;;;;;0.00;0.00;;;;;;;;;;1738279;28;20525;-72
2022/09/26 02:02:56;;;;;;;0.00;0.00;;;;;;;;;;1739138;28;20217;-72
2022/09/26 02:03:49;;;;;;;0.00;0.00;;;;;;;;;;1738189;28;20341;-71
2022/09/26 02:04:43;;;;;;;0.00;0.00;;;;;;;;;;1739211;28;20617;-72
2022/09/26 02:05:35;;;;;;;0.00;0.00;;;;;;;;;;1739392;28;20210;-71
2022/09/26 02:06:32;;;;;;;0.00;0.00;;;;;;;;;;1739139;28;20226;-71
2022/09/26 02:07:26;;;;;;;0.00;0.00;;;;;;;;;;1737449;28;20195;-71
2022/09/26 02:08:23;;;;;;;0.00;0.00;;;;;;;;;;1738994;28;20227;-72
2022/09/26 02:09:16;;;;;;;0.00;0.00;;;;;;;;;;1738288;28;20254;-72
2022/09/26 02:10:10;;;;;;;0.00;0.00;;;;;;;;;;1739566;28;20451;-72
2022/09/26 02:11:05;;;;;;;0.00;0.00;;;;;;;;;;1739271;28;20211;-70
2022/09/26 02:11:59;;;;;;;0.00;0.00;;;;;;;;;;1737903;28;20211;-71
2022/09/26 02:12:53;;;;;;;0.00;0.00;;;;;;;;;;1739346;28;20665;-70
2022/09/26 02:13:48;;;;;;;0.00;0.00;;;;;;;;;;1738007;28;20209;-70
2022/09/26 02:14:40;;;;;;;0.00;0.00;;;;;;;;;;1739400;28;20245;-70
2022/09/26 02:15:33;;;;;;;0.00;0.00;;;;;;;;;;1739874;28;20267;-70
2022/09/26 02:16:31;;;;;;;0.00;0.00;;;;;;;;;;1739932;28;20214;-71
2022/09/26 02:17:26;;;;;;;0.00;0.00;;;;;;;;;;1738860;28;20652;-70
2022/09/26 02:18:20;;;;;;;0.00;0.00;;;;;;;;;;1739621;28;20192;-71
2022/09/26 02:19:14;;;;;;;0.00;0.00;;;;;;;;;;1738621;28;20247;-71
2022/09/26 02:20:09;;;;;;;0.00;0.00;;;;;;;;;;1738988;28;20219;-71
2022/09/26 02:21:02;;;;;;;0.00;0.00;;;;;;;;;;1739078;28;20210;-70
2022/09/26 02:21:54;;;;;;;0.00;0.00;;;;;;;;;;1737567;28;20567;-70
2022/09/26 02:22:46;;;;;;;0.00;0.00;;;;;;;;;;1739517;28;20249;-70
2022/09/26 02:23:37;;;;;;;0.00;0.00;;;;;;;;;;1737842;28;20614;-70
2022/09/26 02:24:29;;;;;;;0.00;0.00;;;;;;;;;;1739778;28;20213;-70
2022/09/26 02:25:20;;;;;;;0.00;0.00;;;;;;;;;;1739837;28;20207;-71
2022/09/26 02:26:12;;;;;;;0.00;0.00;;;;;;;;;;1739903;28;20678;-71
2022/09/26 02:27:05;;;;;;;0.00;0.00;;;;;;;;;;1738170;28;20637;-71
2022/09/26 02:27:57;;;;;;;0.00;0.00;;;;;;;;;;1739075;28;20207;-72
2022/09/26 02:28:49;;;;;;;0.00;0.00;;;;;;;;;;1738133;28;20650;-72
2022/09/26 02:29:41;;;;;;;0.00;0.00;;;;;;;;;;1738803;28;20228;-72
2022/09/26 02:30:32;;;;;;;0.00;0.00;;;;;;;;;;1739313;28;20215;-71
2022/09/26 02:31:25;;;;;;;0.00;0.00;;;;;;;;;;1739245;28;20645;-70
2022/09/26 02:32:20;;;;;;;0.00;0.00;;;;;;;;;;1738518;28;20206;-70
2022/09/26 02:33:12;;;;;;;0.00;0.00;;;;;;;;;;1739420;28;20207;-70
2022/09/26 02:34:03;;;;;;;0.00;0.00;;;;;;;;;;1737486;28;20215;-70
2022/09/26 02:34:56;;;;;;;0.00;0.00;;;;;;;;;;1739040;28;20209;-70
2022/09/26 02:35:53;;;;;;;0.00;0.00;;;;;;;;;;1739141;28;20639;-70
2022/09/26 02:36:45;;;;;;;0.00;0.00;;;;;;;;;;1738124;28;20238;-71
2022/09/26 02:37:37;;;;;;;0.00;0.00;;;;;;;;;;1738758;28;20207;-71
2022/09/26 02:38:30;;;;;;;0.00;0.00;;;;;;;;;;1737996;28;20207;-71
2022/09/26 02:39:22;;;;;;;0.00;0.00;;;;;;;;;;1729289;28;20610;-71
2022/09/26 02:40:13;;;;;;;0.00;0.00;;;;;;;;;;1732780;28;20211;-72
2022/09/26 02:41:12;;;;;;;0.00;0.00;;;;;;;;;;1736851;28;20206;-71
2022/09/26 02:42:09;;;;;;;0.00;0.00;;;;;;;;;;1737817;28;20286;-71
2022/09/26 02:43:06;;;;;;;0.00;0.00;;;;;;;;;;1739025;28;20199;-72
2022/09/26 02:44:05;;;;;;;0.00;0.00;;;;;;;;;;1736935;28;20199;-72
2022/09/26 02:45:07;;;;;;;0.00;0.00;;;;;;;;;;1738961;28;20620;-72
2022/09/26 02:46:02;;;;;;;0.00;0.00;;;;;;;;;;1731803;28;20208;-71
2022/09/26 02:47:11;;;;;;;0.00;0.00;;;;;;;;;;1732309;28;20192;-72
2022/09/26 02:48:11;;;;;;;0.00;0.00;;;;;;;;;;1732741;28;20199;-72
2022/09/26 02:49:07;;;;;;;0.00;0.00;;;;;;;;;;1732412;28;20211;-71
2022/09/26 02:50:07;;;;;;;0.00;0.00;;;;;;;;;;1732252;28;20253;-71
2022/09/26 02:51:07;;;;;;;0.00;0.00;;;;;;;;;;1731980;28;20610;-71
2022/09/26 02:52:06;;;;;;;0.00;0.00;;;;;;;;;;1731821;28;20257;-71
2022/09/26 02:53:04;;;;;;;0.00;0.00;;;;;;;;;;1731925;28;20204;-71
2022/09/26 02:54:02;;;;;;;0.00;0.00;;;;;;;;;;1731821;28;20204;-71
2022/09/26 02:55:02;;;;;;;0.00;0.00;;;;;;;;;;1732071;28;20539;-71
2022/09/26 02:56:00;;;;;;;0.00;0.00;;;;;;;;;;1732184;28;20204;-72
2022/09/26 02:56:57;;;;;;;0.00;0.00;;;;;;;;;;1731720;28;20253;-72
2022/09/26 02:57:53;;;;;;;0.00;0.00;;;;;;;;;;1732265;28;20196;-72
2022/09/26 02:58:48;;;;;;;0.00;0.00;;;;;;;;;;1731749;28;20493;-71
2022/09/26 02:59:46;;;;;;;0.00;0.00;;;;;;;;;;1731970;28;20382;-72
2022/09/26 03:00:44;;;;;;;0.00;0.00;;;;;;;;;;1735628;28;20191;-71
2022/09/26 03:01:39;;;;;;;0.00;0.00;;;;;;;;;;1739189;28;20195;-71
2022/09/26 03:02:33;;;;;;;0.00;0.00;;;;;;;;;;1731963;28;20204;-71
2022/09/26 03:03:30;;;;;;;0.00;0.00;;;;;;;;;;1731844;28;20224;-70
2022/09/26 03:04:26;;;;;;;0.00;0.00;;;;;;;;;;1728900;28;20214;-70
2022/09/26 03:05:19;;;;;;;0.00;0.00;;;;;;;;;;1731914;28;20829;-71
2022/09/26 03:06:13;;;;;;;0.00;0.00;;;;;;;;;;1732156;28;20273;-70
2022/09/26 03:07:07;;;;;;;0.00;0.00;;;;;;;;;;1732304;28;20219;-71
2022/09/26 03:08:01;;;;;;;0.00;0.00;;;;;;;;;;1732893;28;20261;-71
2022/09/26 03:08:53;;;;;;;0.00;0.00;;;;;;;;;;1732341;28;20211;-71
2022/09/26 03:09:46;;;;;;;0.00;0.00;;;;;;;;;;1732559;28;20227;-71
2022/09/26 03:10:37;;;;;;;0.00;0.00;;;;;;;;;;1732468;28;20261;-71
2022/09/26 03:11:30;;;;;;;0.00;0.00;;;;;;;;;;1732052;28;20200;-71
2022/09/26 03:12:23;;;;;;;0.00;0.00;;;;;;;;;;1731710;28;20280;-71
2022/09/26 03:13:16;;;;;;;0.00;0.00;;;;;;;;;;1732028;28;20199;-70
2022/09/26 03:14:08;;;;;;;0.00;0.00;;;;;;;;;;1731966;28;20272;-70
2022/09/26 03:15:02;;;;;;;0.00;0.00;;;;;;;;;;1732622;28;20238;-70
2022/09/26 03:15:55;;;;;;;0.00;0.00;;;;;;;;;;1731772;28;20212;-71
2022/09/26 03:16:48;;;;;;;0.00;0.00;;;;;;;;;;1732676;28;20203;-71
2022/09/26 03:17:42;;;;;;;0.00;0.00;;;;;;;;;;1732752;28;20281;-71
2022/09/26 03:18:39;;;;;;;0.00;0.00;;;;;;;;;;1732236;28;20196;-71
2022/09/26 03:19:32;;;;;;;0.00;0.00;;;;;;;;;;1731902;28;20263;-71
2022/09/26 03:20:24;;;;;;;0.00;0.00;;;;;;;;;;1732381;28;20190;-71
2022/09/26 03:21:15;;;;;;;0.00;0.00;;;;;;;;;;1732139;28;20199;-70
2022/09/26 03:22:08;;;;;;;0.00;0.00;;;;;;;;;;1733840;28;20219;-70
2022/09/26 03:22:59;;;;;;;0.00;0.00;;;;;;;;;;1739134;28;20683;-70
2022/09/26 03:23:51;;;;;;;0.00;0.00;;;;;;;;;;1736739;28;20227;-70
2022/09/26 03:24:43;;;;;;;0.00;0.00;;;;;;;;;;1739111;28;20264;-70
2022/09/26 03:25:35;;;;;;;0.00;0.00;;;;;;;;;;1738411;28;20342;-70
2022/09/26 03:26:27;;;;;;;0.00;0.00;;;;;;;;;;1738914;28;20199;-70
2022/09/26 03:27:19;;;;;;;0.00;0.00;;;;;;;;;;1737219;28;20195;-70
2022/09/26 03:28:11;;;;;;;0.00;0.00;;;;;;;;;;1738877;28;20230;-70
2022/09/26 03:29:03;;;;;;;0.00;0.00;;;;;;;;;;1737347;28;20229;-71
2022/09/26 03:29:55;;;;;;;0.00;0.00;;;;;;;;;;1738723;28;20199;-71
2022/09/26 03:30:46;;;;;;;0.00;0.00;;;;;;;;;;1738568;28;20199;-71
2022/09/26 03:31:38;;;;;;;0.00;0.00;;;;;;;;;;1738673;28;20203;-70
2022/09/26 03:32:29;;;;;;;0.00;0.00;;;;;;;;;;1737803;28;20435;-71
2022/09/26 03:33:20;;;;;;;0.00;0.00;;;;;;;;;;1738579;28;20294;-71
2022/09/26 03:34:14;;;;;;;0.00;0.00;;;;;;;;;;1731721;28;20598;-70
2022/09/26 03:35:05;;;;;;;0.00;0.00;;;;;;;;;;1732378;28;20220;-71
2022/09/26 03:35:59;;;;;;;0.00;0.00;;;;;;;;;;1732680;28;20254;-71
2022/09/26 03:36:51;;;;;;;0.00;0.00;;;;;;;;;;1736886;28;20732;-71
2022/09/26 03:37:42;;;;;;;0.00;0.00;;;;;;;;;;1740209;28;20280;-71
2022/09/26 03:38:34;;;;;;;0.00;0.00;;;;;;;;;;1739289;28;20202;-71
2022/09/26 03:39:25;;;;;;;0.00;0.00;;;;;;;;;;1739857;28;20488;-71
2022/09/26 03:40:17;;;;;;;0.00;0.00;;;;;;;;;;1739765;28;20753;-70
2022/09/26 03:41:08;;;;;;;0.00;0.00;;;;;;;;;;1740148;28;20203;-70
2022/09/26 03:42:01;;;;;;;0.00;0.00;;;;;;;;;;1738420;28;20261;-71
2022/09/26 03:42:52;;;;;;;0.00;0.00;;;;;;;;;;1740064;28;20548;-70
2022/09/26 03:43:44;;;;;;;0.00;0.00;;;;;;;;;;1739116;28;20551;-71
2022/09/26 03:44:35;;;;;;;0.00;0.00;;;;;;;;;;1740041;28;20263;-70
2022/09/26 03:45:28;;;;;;;0.00;0.00;;;;;;;;;;1740387;28;20195;-71
2022/09/26 03:46:19;;;;;;;0.00;0.00;;;;;;;;;;1740236;28;20589;-71
2022/09/26 03:47:11;;;;;;;0.00;0.00;;;;;;;;;;1738401;28;20284;-70
2022/09/26 03:48:02;;;;;;;0.00;0.00;;;;;;;;;;1740374;28;20211;-70
2022/09/26 03:48:54;;;;;;;0.00;0.00;;;;;;;;;;1738984;28;20206;-70
2022/09/26 03:49:47;;;;;;;0.00;0.00;;;;;;;;;;1739967;28;20501;-70
2022/09/26 03:50:39;;;;;;;0.00;0.00;;;;;;;;;;1739922;28;20234;-70
2022/09/26 03:51:30;;;;;;;0.00;0.00;;;;;;;;;;1740055;28;20588;-72
2022/09/26 03:52:23;;;;;;;0.00;0.00;;;;;;;;;;1738294;28;20586;-71
2022/09/26 03:53:14;;;;;;;0.00;0.00;;;;;;;;;;1739985;28;20675;-72
2022/09/26 03:54:06;;;;;;;0.00;0.00;;;;;;;;;;1739349;28;20195;-71
2022/09/26 03:54:57;;;;;;;0.00;0.00;;;;;;;;;;1739840;28;20609;-71
2022/09/26 03:55:49;;;;;;;0.00;0.00;;;;;;;;;;1740123;28;20234;-71
2022/09/26 03:56:40;;;;;;;0.00;0.00;;;;;;;;;;1739550;28;20267;-71
2022/09/26 03:57:32;;;;;;;0.00;0.00;;;;;;;;;;1738930;28;20545;-71
2022/09/26 03:58:23;;;;;;;0.00;0.00;;;;;;;;;;1739812;28;20851;-71
2022/09/26 03:59:15;;;;;;;0.00;0.00;;;;;;;;;;1739032;28;20680;-71
2022/09/26 04:00:07;;;;;;;0.00;0.00;;;;;;;;;;1740303;28;20753;-71
2022/09/26 04:01:03;;;;;;;0.00;0.00;;;;;;;;;;1739748;28;20286;-71
2022/09/26 04:01:54;;;;;;;0.00;0.00;;;;;;;;;;1738579;28;20203;-71
2022/09/26 04:02:46;;;;;;;0.00;0.00;;;;;;;;;;1739753;28;20353;-71
2022/09/26 04:03:37;;;;;;;0.00;0.00;;;;;;;;;;1738676;28;20203;-71
2022/09/26 04:04:31;;;;;;;0.00;0.00;;;;;;;;;;1739832;28;20310;-71
2022/09/26 04:05:23;;;;;;;0.00;0.00;;;;;;;;;;1739898;28;20391;-70
2022/09/26 04:06:18;;;;;;;0.00;0.00;;;;;;;;;;1739902;28;20211;-72
2022/09/26 04:07:09;;;;;;;0.00;0.00;;;;;;;;;;1738819;28;20207;-72
2022/09/26 04:08:02;;;;;;;0.00;0.00;;;;;;;;;;1740538;28;20528;-71
2022/09/26 04:08:53;;;;;;;0.00;0.00;;;;;;;;;;1739533;28;20203;-71
2022/09/26 04:09:45;;;;;;;0.00;0.00;;;;;;;;;;1740176;28;20206;-72
2022/09/26 04:10:37;;;;;;;0.00;0.00;;;;;;;;;;1739232;28;20689;-72
2022/09/26 04:11:28;;;;;;;0.00;0.00;;;;;;;;;;1740513;28;20198;-72
2022/09/26 04:12:20;;;;;;;0.00;0.00;;;;;;;;;;1739647;28;20671;-72
2022/09/26 04:13:11;;;;;;;0.00;0.00;;;;;;;;;;1740327;28;20207;-72
2022/09/26 04:14:03;;;;;;;0.00;0.00;;;;;;;;;;1739561;28;20199;-72
2022/09/26 04:14:55;;;;;;;0.00;0.00;;;;;;;;;;1740541;28;20746;-72
2022/09/26 04:15:53;;;;;;;0.00;0.00;;;;;;;;;;1739974;28;20211;-72
2022/09/26 04:16:45;;;;;;;0.00;0.00;;;;;;;;;;1739609;28;20521;-71
2022/09/26 04:17:36;;;;;;;0.00;0.00;;;;;;;;;;1740145;28;20210;-71
2022/09/26 04:18:28;;;;;;;0.00;0.00;;;;;;;;;;1739291;28;20206;-71
2022/09/26 04:19:19;;;;;;;0.00;0.00;;;;;;;;;;1736118;28;20256;-71
2022/09/26 04:20:11;;;;;;;0.00;0.00;;;;;;;;;;1739900;28;20211;-71
2022/09/26 04:21:05;;;;;;;0.00;0.00;;;;;;;;;;1739711;28;20911;-71
2022/09/26 04:21:57;;;;;;;0.00;0.00;;;;;;;;;;1738214;28;20219;-71
2022/09/26 04:22:48;;;;;;;0.00;0.00;;;;;;;;;;1740001;28;20234;-71
2022/09/26 04:23:41;;;;;;;0.00;0.00;;;;;;;;;;1738630;28;20213;-71
2022/09/26 04:24:32;;;;;;;0.00;0.00;;;;;;;;;;1739892;28;20317;-71
2022/09/26 04:25:24;;;;;;;0.00;0.00;;;;;;;;;;1740062;28;20179;-71
2022/09/26 04:26:16;;;;;;;0.00;0.00;;;;;;;;;;1739945;28;20297;-71
2022/09/26 04:27:09;;;;;;;0.00;0.00;;;;;;;;;;1738392;28;20208;-72
2022/09/26 04:28:00;;;;;;;0.00;0.00;;;;;;;;;;1740055;28;20633;-72
2022/09/26 04:28:53;;;;;;;0.00;0.00;;;;;;;;;;1738598;28;20230;-72
2022/09/26 04:29:44;;;;;;;0.00;0.00;;;;;;;;;;1739832;28;20214;-72
2022/09/26 04:30:38;;;;;;;0.00;0.00;;;;;;;;;;1739989;28;20203;-71
2022/09/26 04:31:29;;;;;;;0.00;0.00;;;;;;;;;;1740189;28;20235;-71
2022/09/26 04:32:21;;;;;;;0.00;0.00;;;;;;;;;;1738287;28;20209;-71
2022/09/26 04:33:12;;;;;;;0.00;0.00;;;;;;;;;;1740332;28;20703;-70
2022/09/26 04:34:05;;;;;;;0.00;0.00;;;;;;;;;;1738874;28;20766;-71
2022/09/26 04:34:56;;;;;;;0.00;0.00;;;;;;;;;;1739969;28;20243;-70
2022/09/26 04:35:48;;;;;;;0.00;0.00;;;;;;;;;;1739799;28;20545;-71
2022/09/26 04:36:41;;;;;;;0.00;0.00;;;;;;;;;;1739257;28;20234;-71
2022/09/26 04:37:35;;;;;;;0.00;0.00;;;;;;;;;;1732875;28;20365;-71
2022/09/26 04:38:31;;;;;;;0.00;0.00;;;;;;;;;;1732746;28;20269;-70
2022/09/26 04:39:23;;;;;;;0.00;0.00;;;;;;;;;;1732510;28;20196;-71
2022/09/26 04:40:14;;;;;;;0.00;0.00;;;;;;;;;;1732419;28;20199;-71
2022/09/26 04:41:06;;;;;;;0.00;0.00;;;;;;;;;;1732719;28;20217;-72
2022/09/26 04:41:57;;;;;;;0.00;0.00;;;;;;;;;;1732642;28;20212;-72
2022/09/26 04:42:49;;;;;;;0.00;0.00;;;;;;;;;;1732919;28;20273;-72
2022/09/26 04:43:41;;;;;;;0.00;0.00;;;;;;;;;;1732640;28;20276;-72
2022/09/26 04:44:32;;;;;;;0.00;0.00;;;;;;;;;;1732756;28;20322;-72
2022/09/26 04:45:24;;;;;;;0.00;0.00;;;;;;;;;;1732491;28;20293;-72
2022/09/26 04:46:16;;;;;;;0.00;0.00;;;;;;;;;;1732426;28;20256;-71
2022/09/26 04:47:07;;;;;;;0.00;0.00;;;;;;;;;;1732356;28;20211;-71
2022/09/26 04:47:59;;;;;;;0.00;0.00;;;;;;;;;;1732810;28;20199;-71
2022/09/26 04:48:51;;;;;;;0.00;0.00;;;;;;;;;;1732617;28;20265;-71
2022/09/26 04:49:43;;;;;;;0.00;0.00;;;;;;;;;;1732621;28;20788;-71
2022/09/26 04:50:34;;;;;;;0.00;0.00;;;;;;;;;;1732984;28;20218;-71
2022/09/26 04:51:27;;;;;;;0.00;0.00;;;;;;;;;;1732672;28;20207;-71
2022/09/26 04:52:20;;;;;;;0.00;0.00;;;;;;;;;;1732331;28;20268;-71
2022/09/26 04:53:12;;;;;;;0.00;0.00;;;;;;;;;;1732736;28;20294;-71
2022/09/26 04:54:03;;;;;;;0.00;0.00;;;;;;;;;;1732621;28;20218;-71
2022/09/26 04:54:55;;;;;;;0.00;0.00;;;;;;;;;;1732993;28;20331;-71
2022/09/26 04:55:46;;;;;;;0.00;0.00;;;;;;;;;;1731871;28;20605;-71
2022/09/26 04:56:38;;;;;;;0.00;0.00;;;;;;;;;;1732957;28;20249;-72
2022/09/26 04:57:30;;;;;;;0.00;0.00;;;;;;;;;;1732491;28;20281;-72
2022/09/26 04:58:22;;;;;;;0.00;0.00;;;;;;;;;;1732679;28;20694;-72
2022/09/26 04:59:13;;;;;;;0.00;0.00;;;;;;;;;;1732379;28;20264;-72
2022/09/26 05:00:06;;;;;;;0.00;0.00;;;;;;;;;;1732460;28;20456;-72
2022/09/26 05:01:02;;;;;;;0.00;0.00;;;;;;;;;;1732566;28;20541;-71
2022/09/26 05:01:55;;;;;;;0.00;0.00;;;;;;;;;;1732177;28;20231;-71
2022/09/26 05:02:46;;;;;;;0.00;0.00;;;;;;;;;;1732842;28;20219;-70
2022/09/26 05:03:38;;;;;;;0.00;0.00;;;;;;;;;;1732394;28;20202;-70
2022/09/26 05:04:32;;;;;;;0.00;0.00;;;;;;;;;;1732515;28;20325;-70
2022/09/26 05:05:24;;;;;;;0.00;0.00;;;;;;;;;;1733584;28;20188;-70
2022/09/26 05:06:16;;;;;;;0.00;0.00;;;;;;;;;;1739301;28;20595;-71
2022/09/26 05:07:08;;;;;;;0.00;0.00;;;;;;;;;;1738385;28;20231;-71
2022/09/26 05:08:00;;;;;;;0.00;0.00;;;;;;;;;;1740012;28;20214;-71
2022/09/26 05:08:53;;;;;;;0.00;0.00;;;;;;;;;;1738566;28;20234;-71
2022/09/26 05:09:45;;;;;;;0.00;0.00;;;;;;;;;;1739868;28;20215;-71
2022/09/26 05:10:37;;;;;;;0.00;0.00;;;;;;;;;;1735033;28;20265;-71
2022/09/26 05:11:28;;;;;;;0.00;0.00;;;;;;;;;;1732802;28;20199;-70
2022/09/26 05:12:20;;;;;;;0.00;0.00;;;;;;;;;;1732105;28;20625;-70
2022/09/26 05:13:11;;;;;;;0.00;0.00;;;;;;;;;;1732777;28;20212;-70
2022/09/26 05:14:03;;;;;;;0.00;0.00;;;;;;;;;;1732027;28;20227;-71
2022/09/26 05:14:55;;;;;;;0.00;0.00;;;;;;;;;;1732679;28;20219;-70
2022/09/26 05:15:48;;;;;;;0.00;0.00;;;;;;;;;;1736471;28;20203;-71
2022/09/26 05:16:40;;;;;;;0.00;0.00;;;;;;;;;;1733855;28;20272;-70
2022/09/26 05:17:32;;;;;;;0.00;0.00;;;;;;;;;;1732477;28;20750;-70
2022/09/26 05:18:23;;;;;;;0.00;0.00;;;;;;;;;;1731910;28;20542;-71
2022/09/26 05:19:15;;;;;;;0.00;0.00;;;;;;;;;;1732201;28;20629;-71
2022/09/26 05:20:07;;;;;;;0.00;0.00;;;;;;;;;;1732699;28;20294;-70
2022/09/26 05:21:00;;;;;;;0.00;0.00;;;;;;;;;;1732334;28;20287;-71
2022/09/26 05:21:51;;;;;;;0.00;0.00;;;;;;;;;;1732226;28;20203;-71